< < Back
Terminal Aerodrome Forecast


Current Version              Previous Versions:   1  2  3  4  5  6  7  8  9  

Terminal Aerodrome Forecast

786
FTUS44 KBMX 292320
TAFMGM
TAF
KMGM 292320Z 3000/3024 23003KT P6SM BKN250
     FM301500 24007KT P6SM VCTS SCT050CB=



Latest METAR

189
SAUS80 KWBC 292300 RRA
MTRMGM
METAR KMGM 292253Z 00000KT 10SM CLR 31/20 A2996 RMK AO2 SLP142
T03060200


USA.gov is the U.S. government's official web portal to all federal, state and local government web resources and services.